KSVC 
Grant County Airport
Silver City, New Mexico, United States 
ICAOIATAStatusUseage
KSVCSVCOperationalPublic
LatitudeLongitude
32° 38' 11" N108° 9' 22" W
32.636547-108.156385
Local Time (DST-6)UTC (GMT-7)
04-20-2014 07:59 pm04-21-2014 01:59
Sunrise-SunsetLocalUTC
Begin Civil Twilight06:09 am12:09
Sunrise06:34 am12:34
Sunset07:47 pm01:47
End Civil Twilight08:13 pm02:13

Current Weather

METARObservedFlight Conditions

KSVC 210135Z AUTO 03007KT 10SM CLR 17/05 A3017

Mon, Apr 21, 2014 @ 01:35 UTC(Z)

(24 Minutes ago)

VFR

(Visual Flight Rules)

WindVisibilityCloudsConditions
030° at 7 knots (8 mph)
10 statute miles
  • Clear skies
  • No significant weather
TemperaturesReadingsPrecipitation
Current Temp17°C (63°F)
Dewpoint5°C (41°F)
Humidity45%
Altimeter30.17"Hg
Sea Level Pressure1022mb
Field Elevation5443.01'
None Recorded

Additional weather within a 50nm radius of KSVC

Location METAR
KDMN

31.5nm S (135°)

1 hour, 6 minutes ago
KLSB

32.6nm S (236°)

24 minutes ago
VFR VFR    MVFR MVFR    IFR IFR    LIFR LIFR    Unknown Unknown

Previous 24 hour Weather Graphs

  Loading...

CheckWX.com is intended as a tool to help pilots better visualize weather data.   It is not intended as a substitute for an official weather briefing obtained from a Flight Service Station.
CheckWX.com does not meet the FAA requirements for an official pre-flight weather briefing.   Therefore, it's important that pilots still call and obtain an official FSS pre-flight weather briefing.